createdAt,value
2022-09-04T00:02:00.186Z,100.00
2022-09-04T00:04:51.722Z,100.00
2022-09-04T00:07:37.346Z,100.00
2022-09-04T00:10:22.156Z,100.00
2022-09-04T00:12:52.162Z,100.00
2022-09-04T00:15:23.067Z,100.00
2022-09-04T00:18:00.299Z,100.00
2022-09-04T00:20:38.801Z,100.00
2022-09-04T00:23:20.677Z,100.00
2022-09-04T00:25:53.505Z,100.00
2022-09-04T00:28:38.241Z,100.00
2022-09-04T00:31:13.408Z,100.00
2022-09-04T00:34:00.535Z,100.00
2022-09-04T00:36:28.368Z,100.00
2022-09-04T00:39:00.498Z,100.00
2022-09-04T00:41:37.231Z,100.00
2022-09-04T00:44:32.045Z,100.00
2022-09-04T00:47:25.720Z,100.00
2022-09-04T00:49:58.745Z,100.00
2022-09-04T00:53:07.036Z,100.00
2022-09-04T00:55:54.058Z,100.00
2022-09-04T00:58:40.047Z,100.00
2022-09-04T01:01:07.221Z,100.00
2022-09-04T01:03:49.351Z,100.00
2022-09-04T01:06:36.132Z,100.00
2022-09-04T01:09:08.743Z,100.00
2022-09-04T01:11:56.684Z,100.00
2022-09-04T01:14:42.126Z,100.00
2022-09-04T01:17:27.641Z,100.00
2022-09-04T01:20:01.478Z,100.00
2022-09-04T01:22:33.956Z,100.00
2022-09-04T01:25:26.633Z,100.00
2022-09-04T01:28:19.024Z,100.00
2022-09-04T01:30:59.524Z,100.00
2022-09-04T01:34:09.876Z,100.00
2022-09-04T01:36:58.710Z,100.00
2022-09-04T01:39:29.389Z,100.00
2022-09-04T01:41:58.987Z,100.00
2022-09-04T01:44:26.887Z,100.00
2022-09-04T01:47:00.351Z,100.00
2022-09-04T01:49:36.310Z,100.00
2022-09-04T01:52:18.742Z,100.00
2022-09-04T01:54:54.893Z,100.00
2022-09-04T01:57:40.927Z,100.00
2022-09-04T02:00:23.096Z,100.00
2022-09-04T02:02:54.850Z,100.00
2022-09-04T02:05:30.933Z,100.00
2022-09-04T02:08:09.834Z,100.00
2022-09-04T02:10:45.400Z,100.00
2022-09-04T02:13:44.857Z,100.00
2022-09-04T02:16:33.888Z,100.00
2022-09-04T02:19:28.982Z,100.00
2022-09-04T02:22:03.563Z,100.00
2022-09-04T02:24:36.815Z,100.00
2022-09-04T02:27:03.394Z,100.00
2022-09-04T02:29:40.308Z,100.00
2022-09-04T02:32:37.929Z,100.00
2022-09-04T02:35:23.870Z,100.00
2022-09-04T02:38:09.518Z,100.00
2022-09-04T02:41:10.338Z,100.00
2022-09-04T02:43:57.536Z,100.00
2022-09-04T02:46:41.199Z,100.00
2022-09-04T02:49:17.706Z,100.00
2022-09-04T02:52:19.861Z,100.00
2022-09-04T02:54:57.881Z,100.00
2022-09-04T02:58:14.694Z,100.00
2022-09-04T03:00:57.277Z,100.00
2022-09-04T03:03:32.010Z,100.00
2022-09-04T03:06:08.911Z,100.00
2022-09-04T03:08:43.755Z,100.00
2022-09-04T03:11:15.787Z,100.00
2022-09-04T03:14:34.521Z,100.00
2022-09-04T03:17:13.726Z,100.00
2022-09-04T03:19:50.547Z,100.00
2022-09-04T03:22:28.437Z,100.00
2022-09-04T03:25:20.076Z,100.00
2022-09-04T03:27:46.711Z,100.00
2022-09-04T03:30:14.726Z,100.00
2022-09-04T03:32:59.602Z,100.00
2022-09-04T03:35:39.964Z,100.00
2022-09-04T03:38:20.918Z,100.00
2022-09-04T03:41:25.166Z,100.00
2022-09-04T03:43:57.918Z,100.00
2022-09-04T03:46:32.955Z,100.00
2022-09-04T03:49:06.048Z,100.00
2022-09-04T03:52:02.733Z,100.00
2022-09-04T03:54:35.634Z,100.00
2022-09-04T03:57:36.307Z,100.00
2022-09-04T04:00:18.309Z,100.00
2022-09-04T04:03:31.292Z,100.00
2022-09-04T04:06:31.874Z,100.00
2022-09-04T04:09:23.441Z,100.00
2022-09-04T04:12:10.533Z,100.00
2022-09-04T04:14:44.243Z,100.00
2022-09-04T04:17:34.582Z,100.00
2022-09-04T04:20:11.567Z,100.00
2022-09-04T04:23:00.671Z,100.00
2022-09-04T04:25:39.076Z,100.00
2022-09-04T04:28:21.433Z,100.00
2022-09-04T04:30:53.317Z,100.00
2022-09-04T04:33:52.435Z,100.00
2022-09-04T04:36:40.153Z,100.00
2022-09-04T04:39:12.757Z,100.00
2022-09-04T04:42:06.203Z,100.00
2022-09-04T04:45:08.234Z,100.00
2022-09-04T04:47:40.901Z,100.00
2022-09-04T04:50:37.577Z,100.00
2022-09-04T04:53:16.479Z,100.00
2022-09-04T04:55:59.347Z,100.00
2022-09-04T04:58:36.817Z,100.00
2022-09-04T05:01:29.891Z,100.00
2022-09-04T05:04:00.450Z,100.00
2022-09-04T05:06:41.277Z,100.00
2022-09-04T05:09:19.316Z,100.00
2022-09-04T05:11:56.411Z,100.00
2022-09-04T05:14:42.296Z,100.00
2022-09-04T05:17:46.769Z,100.00
2022-09-04T05:20:42.884Z,100.00
2022-09-04T05:23:22.153Z,100.00
2022-09-04T05:26:02.719Z,100.00
2022-09-04T05:28:35.178Z,100.00
2022-09-04T05:31:32.710Z,100.00
2022-09-04T05:34:17.880Z,100.00
2022-09-04T05:37:06.535Z,100.00
2022-09-04T05:39:49.390Z,100.00
2022-09-04T05:42:39.051Z,100.00
2022-09-04T05:45:24.536Z,100.00
2022-09-04T05:47:54.146Z,100.00
2022-09-04T05:50:34.196Z,100.00
2022-09-04T05:53:18.288Z,100.00
2022-09-04T05:55:58.123Z,100.00
2022-09-04T05:58:43.337Z,100.00
2022-09-04T06:01:30.181Z,100.00
2022-09-04T06:04:18.831Z,100.00
2022-09-04T06:07:07.415Z,100.00
2022-09-04T06:10:01.478Z,100.00
2022-09-04T06:13:00.304Z,100.00
2022-09-04T06:15:58.220Z,100.00
2022-09-04T06:18:59.711Z,100.00
2022-09-04T06:21:53.994Z,100.00
2022-09-04T06:24:44.543Z,100.00
2022-09-04T06:27:29.949Z,100.00
2022-09-04T06:30:11.756Z,100.00
2022-09-04T06:33:02.142Z,100.00
2022-09-04T06:35:51.050Z,100.00
2022-09-04T06:38:49.745Z,100.00
2022-09-04T06:41:40.823Z,100.00
2022-09-04T06:44:38.388Z,100.00
2022-09-04T06:47:26.065Z,100.00
2022-09-04T06:50:10.067Z,100.00
2022-09-04T06:52:50.136Z,100.00
2022-09-04T06:55:33.403Z,100.00
2022-09-04T06:58:39.250Z,100.00
2022-09-04T07:01:13.621Z,100.00
2022-09-04T07:04:00.585Z,100.00
2022-09-04T07:06:52.361Z,100.00
2022-09-04T07:09:38.874Z,100.00
2022-09-04T07:12:40.260Z,100.00
2022-09-04T07:15:25.616Z,100.00
2022-09-04T07:18:04.225Z,100.00
2022-09-04T07:21:02.216Z,100.00
2022-09-04T07:23:56.760Z,100.00
2022-09-04T07:26:42.105Z,100.00
2022-09-04T07:29:16.222Z,100.00
2022-09-04T07:32:06.104Z,100.00
2022-09-04T07:34:47.588Z,100.00
2022-09-04T07:37:31.925Z,100.00
2022-09-04T07:40:12.629Z,100.00
2022-09-04T07:43:07.770Z,100.00
2022-09-04T07:45:38.369Z,100.00
2022-09-04T07:48:37.868Z,100.00
2022-09-04T07:51:12.068Z,100.00
2022-09-04T07:53:56.645Z,100.00
2022-09-04T07:56:41.998Z,100.00
2022-09-04T07:59:27.456Z,100.00
2022-09-04T08:02:06.511Z,100.00
2022-09-04T08:04:48.753Z,100.00
2022-09-04T08:07:29.199Z,100.00
2022-09-04T08:10:14.313Z,100.00
2022-09-04T08:13:29.059Z,100.00
2022-09-04T08:16:18.099Z,100.00
2022-09-04T08:19:01.530Z,100.00
2022-09-04T08:21:36.175Z,100.00
2022-09-04T08:24:10.976Z,100.00
2022-09-04T08:27:29.594Z,100.00
2022-09-04T08:30:04.322Z,100.00
2022-09-04T08:32:55.208Z,100.00
2022-09-04T08:35:48.959Z,100.00
2022-09-04T08:38:34.591Z,100.00
2022-09-04T08:41:01.435Z,100.00
2022-09-04T08:43:37.955Z,100.00
2022-09-04T08:46:29.894Z,100.00
2022-09-04T08:49:11.901Z,100.00
2022-09-04T08:51:50.529Z,100.00
2022-09-04T08:54:41.436Z,100.00
2022-09-04T08:57:20.714Z,100.00
2022-09-04T09:00:07.494Z,100.00
2022-09-04T09:02:40.329Z,100.00
2022-09-04T09:05:30.279Z,100.00
2022-09-04T09:08:28.530Z,100.00
2022-09-04T09:11:27.377Z,100.00
2022-09-04T09:14:16.026Z,100.00
2022-09-04T09:16:54.878Z,100.00
2022-09-04T09:19:45.199Z,100.00
2022-09-04T09:22:31.100Z,100.00
2022-09-04T09:25:21.697Z,100.00
2022-09-04T09:28:26.427Z,100.00
2022-09-04T09:31:22.122Z,100.00
2022-09-04T09:34:14.077Z,100.00
2022-09-04T09:37:18.306Z,100.00
2022-09-04T09:40:22.636Z,100.00
2022-09-04T09:43:09.450Z,100.00
2022-09-04T09:45:44.573Z,100.00
2022-09-04T09:48:30.028Z,100.00
2022-09-04T09:51:18.354Z,100.00
2022-09-04T09:53:47.197Z,100.00
2022-09-04T09:56:35.486Z,100.00
2022-09-04T09:59:25.963Z,100.00
2022-09-04T10:02:26.304Z,100.00
2022-09-04T10:05:31.204Z,100.00
2022-09-04T10:08:06.660Z,100.00
2022-09-04T10:11:09.093Z,100.00
2022-09-04T10:14:33.063Z,100.00
2022-09-04T10:17:27.050Z,100.00
2022-09-04T10:20:21.535Z,100.00
2022-09-04T10:22:56.061Z,100.00
2022-09-04T10:25:41.528Z,100.00
2022-09-04T10:28:08.104Z,100.00
2022-09-04T10:31:08.757Z,100.00
2022-09-04T10:33:57.973Z,100.00
2022-09-04T10:36:31.706Z,100.00
2022-09-04T10:39:55.310Z,100.00
2022-09-04T10:42:54.485Z,100.00
2022-09-04T10:45:27.317Z,100.00
2022-09-04T10:48:06.222Z,100.00
2022-09-04T10:51:02.201Z,100.00
2022-09-04T10:53:57.848Z,100.00
2022-09-04T10:56:47.158Z,100.00
2022-09-04T10:59:29.487Z,100.00
2022-09-04T11:02:22.287Z,100.00
2022-09-04T11:05:01.568Z,100.00
2022-09-04T11:07:37.432Z,100.00
2022-09-04T11:10:13.039Z,100.00
2022-09-04T11:12:51.907Z,100.00
2022-09-04T11:15:27.741Z,100.00
2022-09-04T11:18:03.515Z,100.00
2022-09-04T11:20:46.615Z,100.00
2022-09-04T11:23:35.424Z,100.00
2022-09-04T11:26:10.807Z,100.00
2022-09-04T11:28:56.904Z,100.00
2022-09-04T11:31:32.295Z,100.00
2022-09-04T11:34:19.964Z,100.00
2022-09-04T11:37:17.254Z,100.00
2022-09-04T11:39:53.094Z,100.00
2022-09-04T11:42:41.269Z,100.00
2022-09-04T11:45:35.913Z,100.00
2022-09-04T11:48:25.454Z,100.00
2022-09-04T11:50:59.945Z,100.00
2022-09-04T11:54:03.816Z,100.00
2022-09-04T11:56:31.047Z,100.00
2022-09-04T11:59:22.448Z,100.00
2022-09-04T12:01:58.305Z,100.00
2022-09-04T12:04:50.365Z,100.00
2022-09-04T12:07:23.088Z,100.00
2022-09-04T12:10:31.720Z,100.00
2022-09-04T12:13:15.235Z,100.00
2022-09-04T12:16:00.734Z,100.00
2022-09-04T12:18:54.407Z,100.00
2022-09-04T12:21:57.217Z,100.00
2022-09-04T12:24:50.922Z,100.00
2022-09-04T12:27:38.038Z,100.00
2022-09-04T12:30:20.285Z,100.00
2022-09-04T12:33:24.505Z,100.00
2022-09-04T12:36:33.278Z,100.00
2022-09-04T12:39:09.236Z,100.00
2022-09-04T12:41:49.306Z,100.00
2022-09-04T12:44:43.702Z,100.00
2022-09-04T12:47:41.185Z,100.00
2022-09-04T12:50:28.160Z,100.00
2022-09-04T12:52:57.874Z,100.00
2022-09-04T12:55:46.757Z,100.00
2022-09-04T12:58:47.842Z,100.00
2022-09-04T13:01:32.036Z,100.00
2022-09-04T13:04:20.193Z,100.00
2022-09-04T13:07:16.061Z,100.00
2022-09-04T13:10:08.143Z,100.00
2022-09-04T13:13:09.128Z,100.00
2022-09-04T13:16:13.870Z,100.00
2022-09-04T13:19:00.034Z,100.00
2022-09-04T13:21:39.310Z,100.00
2022-09-04T13:24:19.565Z,100.00
2022-09-04T13:27:18.710Z,100.00
2022-09-04T13:30:08.433Z,100.00
2022-09-04T13:32:59.276Z,99.26
2022-09-04T13:35:44.691Z,96.47
2022-09-04T13:38:24.218Z,92.06
2022-09-04T13:41:06.867Z,92.05
2022-09-04T13:43:52.346Z,92.39
2022-09-04T13:46:23.830Z,90.93
2022-09-04T13:49:05.312Z,91.02
2022-09-04T13:51:43.276Z,88.55
2022-09-04T13:54:21.296Z,89.42
2022-09-04T13:56:59.885Z,88.86
2022-09-04T13:59:26.607Z,96.41
2022-09-04T14:01:59.335Z,92.60
2022-09-04T14:04:39.112Z,95.03
2022-09-04T14:07:17.539Z,87.44
2022-09-04T14:09:48.218Z,80.56
2022-09-04T14:12:46.687Z,81.58
2022-09-04T14:15:48.022Z,81.37
2022-09-04T14:18:59.153Z,79.42
2022-09-04T14:22:04.733Z,80.14
2022-09-04T14:24:56.510Z,85.95
2022-09-04T14:27:41.557Z,87.55
2022-09-04T14:30:14.586Z,93.00
2022-09-04T14:33:07.246Z,91.68
2022-09-04T14:35:59.490Z,93.85
2022-09-04T14:38:36.286Z,86.77
2022-09-04T14:41:16.077Z,87.11
2022-09-04T14:43:46.156Z,91.57
2022-09-04T14:46:36.296Z,96.12
2022-09-04T14:49:08.300Z,98.14
2022-09-04T14:51:39.336Z,98.69
2022-09-04T14:54:09.077Z,94.05
2022-09-04T14:56:45.739Z,96.10
2022-09-04T14:59:38.190Z,96.43
2022-09-04T15:02:11.289Z,96.21
2022-09-04T15:05:02.569Z,90.84
2022-09-04T15:07:41.348Z,89.73
2022-09-04T15:10:49.738Z,88.41
2022-09-04T15:13:37.978Z,87.81
2022-09-04T15:16:09.787Z,87.09
2022-09-04T15:18:40.541Z,86.31
2022-09-04T15:21:25.206Z,85.72
2022-09-04T15:24:00.477Z,85.91
2022-09-04T15:26:37.709Z,88.17
2022-09-04T15:29:31.599Z,87.60
2022-09-04T15:32:01.881Z,87.84
2022-09-04T15:34:30.297Z,87.67
2022-09-04T15:37:10.570Z,86.61
2022-09-04T15:39:48.694Z,87.16
2022-09-04T15:42:33.662Z,87.54
2022-09-04T15:45:09.873Z,86.73
2022-09-04T15:47:44.675Z,86.44
2022-09-04T15:50:25.751Z,86.55
2022-09-04T15:53:27.240Z,84.06
2022-09-04T15:56:20.400Z,81.78
2022-09-04T15:58:53.150Z,81.68
2022-09-04T16:01:28.240Z,81.46
2022-09-04T16:04:01.456Z,80.90
2022-09-04T16:06:36.838Z,81.09
2022-09-04T16:09:31.380Z,81.16
2022-09-04T16:12:18.284Z,79.97
2022-09-04T16:14:52.139Z,78.73
2022-09-04T16:17:25.376Z,80.34
2022-09-04T16:20:21.607Z,80.84
2022-09-04T16:22:58.378Z,89.30
2022-09-04T16:25:34.773Z,98.08
2022-09-04T16:28:33.944Z,100.00
2022-09-04T16:31:12.729Z,100.00
2022-09-04T16:33:53.262Z,100.00
2022-09-04T16:36:22.918Z,100.00
2022-09-04T16:39:05.656Z,100.00
2022-09-04T16:41:37.711Z,100.00
2022-09-04T16:44:26.720Z,100.00
2022-09-04T16:47:05.908Z,100.00
2022-09-04T16:50:14.815Z,100.00
2022-09-04T16:52:41.646Z,100.00
2022-09-04T16:55:24.986Z,100.00
2022-09-04T16:58:10.623Z,100.00
2022-09-04T17:01:13.642Z,100.00
2022-09-04T17:03:52.337Z,100.00
2022-09-04T17:06:57.342Z,100.00
2022-09-04T17:09:23.959Z,100.00
2022-09-04T17:11:55.311Z,100.00
2022-09-04T17:14:42.338Z,100.00
2022-09-04T17:17:30.523Z,100.00
2022-09-04T17:20:12.429Z,100.00
2022-09-04T17:28:56.530Z,100.00
2022-09-04T17:29:14.770Z,100.00
2022-09-04T17:29:29.748Z,100.00
2022-09-04T17:32:33.629Z,100.00
2022-09-04T17:40:31.808Z,100.00
2022-09-04T17:40:50.301Z,100.00
2022-09-04T17:42:08.203Z,100.00
2022-09-04T17:44:30.145Z,100.00
2022-09-04T17:47:28.748Z,100.00
2022-09-04T17:49:57.466Z,100.00
2022-09-04T17:52:31.365Z,100.00
2022-09-04T17:55:07.019Z,100.00
2022-09-04T17:57:43.556Z,100.00
2022-09-04T18:00:24.010Z,100.00
2022-09-04T18:03:12.374Z,100.00
2022-09-04T18:05:53.018Z,100.00
2022-09-04T18:08:55.167Z,100.00
2022-09-04T18:11:30.819Z,100.00
2022-09-04T18:14:26.759Z,100.00
2022-09-04T18:17:12.535Z,100.00
2022-09-04T18:19:47.481Z,100.00
2022-09-04T18:23:05.665Z,100.00
2022-09-04T18:25:45.839Z,100.00
2022-09-04T18:28:25.366Z,100.00
2022-09-04T18:37:08.640Z,100.00
2022-09-04T18:37:17.226Z,100.00
2022-09-04T18:37:44.508Z,100.00
2022-09-04T18:42:09.868Z,100.00
2022-09-04T18:50:21.406Z,100.00
2022-09-04T18:50:45.516Z,100.00
2022-09-04T18:50:48.819Z,100.00
2022-09-04T18:52:22.623Z,100.00
2022-09-04T18:54:57.073Z,100.00
2022-09-04T18:57:31.522Z,100.00
2022-09-04T19:00:08.952Z,100.00
2022-09-04T19:03:22.623Z,100.00
2022-09-04T19:05:54.006Z,100.00
2022-09-04T19:08:29.345Z,100.00
2022-09-04T19:11:21.062Z,100.00
2022-09-04T19:13:54.561Z,100.00
2022-09-04T19:16:28.729Z,100.00
2022-09-04T19:19:07.026Z,100.00
2022-09-04T19:21:41.962Z,100.00
2022-09-04T19:24:21.717Z,100.00
2022-09-04T19:26:54.369Z,100.00
2022-09-04T19:29:46.127Z,100.00
2022-09-04T19:32:17.400Z,100.00
2022-09-04T19:34:50.360Z,100.00
2022-09-04T19:41:16.686Z,100.00
2022-09-04T19:46:01.037Z,100.00
2022-09-04T19:46:15.956Z,100.00
2022-09-04T19:46:56.626Z,100.00
2022-09-04T19:53:19.182Z,100.00
2022-09-04T19:53:30.344Z,100.00
2022-09-04T19:55:39.840Z,100.00
2022-09-04T19:58:10.681Z,100.00
2022-09-04T20:00:56.103Z,100.00
2022-09-04T20:03:31.180Z,100.00
2022-09-04T20:06:20.835Z,100.00
2022-09-04T20:08:57.790Z,100.00
2022-09-04T20:11:36.109Z,100.00
2022-09-04T20:14:13.928Z,100.00
2022-09-04T20:17:27.289Z,100.00
2022-09-04T20:19:59.553Z,100.00
2022-09-04T20:22:32.230Z,100.00
2022-09-04T20:25:07.996Z,100.00
2022-09-04T20:27:49.615Z,100.00
2022-09-04T20:30:24.530Z,100.00
2022-09-04T20:33:06.120Z,100.00
2022-09-04T20:35:40.093Z,100.00
2022-09-04T20:38:23.830Z,100.00
2022-09-04T20:41:00.016Z,100.00
2022-09-04T20:43:44.452Z,100.00
2022-09-04T20:51:17.553Z,100.00
2022-09-04T20:52:49.300Z,100.00
2022-09-04T20:52:53.516Z,100.00
2022-09-04T20:55:25.446Z,100.00
2022-09-04T21:03:12.416Z,100.00
2022-09-04T21:03:20.861Z,100.00
2022-09-04T21:05:00.115Z,100.00
2022-09-04T21:08:00.426Z,100.00
2022-09-04T21:10:46.804Z,100.00
2022-09-04T21:13:38.106Z,100.00
2022-09-04T21:16:32.698Z,100.00
2022-09-04T21:19:29.218Z,100.00
2022-09-04T21:22:34.100Z,100.00
2022-09-04T21:25:22.821Z,100.00
2022-09-04T21:28:12.902Z,100.00
2022-09-04T21:30:52.124Z,100.00
2022-09-04T21:33:39.189Z,100.00
2022-09-04T21:36:27.711Z,100.00
2022-09-04T21:39:31.403Z,100.00
2022-09-04T21:42:17.051Z,100.00
2022-09-04T21:45:18.957Z,100.00
2022-09-04T21:48:18.407Z,100.00
2022-09-04T21:50:58.818Z,100.00
2022-09-04T21:53:31.916Z,100.00
2022-09-04T22:00:06.021Z,100.00
2022-09-04T22:02:44.439Z,100.00
2022-09-04T22:03:29.957Z,100.00
2022-09-04T22:06:04.738Z,100.00
2022-09-04T22:13:27.220Z,100.00
2022-09-04T22:13:46.218Z,100.00
2022-09-04T22:14:39.930Z,100.00
2022-09-04T22:17:19.050Z,100.00
2022-09-04T22:20:17.981Z,100.00
2022-09-04T22:22:44.560Z,100.00
2022-09-04T22:25:31.766Z,100.00
2022-09-04T22:28:51.145Z,100.00
2022-09-04T22:31:29.442Z,100.00
2022-09-04T22:34:17.907Z,100.00
2022-09-04T22:37:03.250Z,100.00
2022-09-04T22:39:39.248Z,100.00
2022-09-04T22:42:29.731Z,100.00
2022-09-04T22:44:56.582Z,100.00
2022-09-04T22:48:15.988Z,100.00
2022-09-04T22:51:11.148Z,100.00
2022-09-04T22:54:16.411Z,100.00
2022-09-04T22:57:02.690Z,100.00
2022-09-04T22:59:47.952Z,100.00
2022-09-04T23:03:04.192Z,100.00
2022-09-04T23:05:37.922Z,100.00
2022-09-04T23:13:44.639Z,100.00
2022-09-04T23:13:57.112Z,100.00
2022-09-04T23:14:50.402Z,100.00
2022-09-04T23:19:05.642Z,100.00
2022-09-04T23:26:33.593Z,100.00
2022-09-04T23:26:41.826Z,100.00
2022-09-04T23:27:35.466Z,100.00
2022-09-04T23:30:25.301Z,100.00
2022-09-04T23:33:16.013Z,100.00
2022-09-04T23:36:07.852Z,100.00
2022-09-04T23:39:21.913Z,100.00
2022-09-04T23:42:13.622Z,100.00
2022-09-04T23:45:18.485Z,100.00
2022-09-04T23:47:49.585Z,100.00
2022-09-04T23:50:31.719Z,100.00
2022-09-04T23:53:09.809Z,100.00
2022-09-04T23:56:10.821Z,100.00
2022-09-04T23:59:11.522Z,100.00
